Weather at Clear Lake Heliport

Public forecast

Using degrees Fahrenheit for public forecast. Weather courtesy of forecast.io.

Closest aviation weather report (METAR) to Clear Lake Heliport

Closest report is Blue Grass Airport, 12.0 nm (22.3 km) NW. Retrieved 2021/06/20 08:54 UTC (57 minutes ago):

KLEX 200854Z 21007KT 10SM CLR 20/18 A2986 RMK AO2 SLP099 T02000183 56008

Closest aviation forecast (TAF) to Clear Lake Heliport

Closest forecast is Blue Grass Airport, 12.0 nm (22.3 km) NW. Retrieved 2021/06/20 06:24 UTC (3 hours ago):

TAF KLEX 200522Z 2006/2106 20007KT P6SM SCT150